createdAt,value
2023-02-16T00:04:50.353Z,100.00
2023-02-16T00:09:58.051Z,100.00
2023-02-16T00:15:02.658Z,100.00
2023-02-16T00:20:15.201Z,100.00
2023-02-16T00:25:21.088Z,100.00
2023-02-16T00:30:25.621Z,100.00
2023-02-16T00:35:29.995Z,100.00
2023-02-16T00:40:36.071Z,100.00
2023-02-16T00:45:43.258Z,100.00
2023-02-16T00:50:48.766Z,100.00
2023-02-16T00:55:56.672Z,100.00
2023-02-16T01:01:09.395Z,100.00
2023-02-16T01:06:31.403Z,100.00
2023-02-16T01:11:37.315Z,100.00
2023-02-16T01:16:43.839Z,100.00
2023-02-16T01:21:48.398Z,100.00
2023-02-16T01:26:54.350Z,100.00
2023-02-16T01:31:58.518Z,100.00
2023-02-16T01:37:03.982Z,100.00
2023-02-16T01:42:28.998Z,100.00
2023-02-16T01:47:43.217Z,100.00
2023-02-16T01:52:56.711Z,100.00
2023-02-16T01:58:07.941Z,100.00
2023-02-16T02:03:36.405Z,100.00
2023-02-16T02:08:48.051Z,100.00
2023-02-16T02:14:01.651Z,100.00
2023-02-16T02:19:06.477Z,100.00
2023-02-16T02:24:54.428Z,100.00
2023-02-16T02:30:17.881Z,100.00
2023-02-16T02:35:39.906Z,100.00
2023-02-16T02:41:00.623Z,100.00
2023-02-16T02:46:17.381Z,100.00
2023-02-16T02:51:29.663Z,100.00
2023-02-16T02:57:10.149Z,100.00
2023-02-16T03:02:18.680Z,100.00
2023-02-16T03:07:46.126Z,100.00
2023-02-16T03:12:50.958Z,100.00
2023-02-16T03:18:16.576Z,100.00
2023-02-16T03:23:38.281Z,100.00
2023-02-16T03:29:03.425Z,100.00
2023-02-16T03:34:09.349Z,100.00
2023-02-16T03:39:14.381Z,100.00
2023-02-16T03:44:19.309Z,100.00
2023-02-16T03:49:25.300Z,100.00
2023-02-16T03:54:29.967Z,100.00
2023-02-16T03:59:34.574Z,100.00
2023-02-16T04:04:40.624Z,100.00
2023-02-16T04:09:44.997Z,100.00
2023-02-16T04:14:49.413Z,100.00
2023-02-16T04:19:55.749Z,100.00
2023-02-16T04:25:00.287Z,100.00
2023-02-16T04:30:07.478Z,100.00
2023-02-16T04:35:15.188Z,100.00
2023-02-16T04:40:21.694Z,100.00
2023-02-16T04:45:26.145Z,100.00
2023-02-16T04:50:32.473Z,100.00
2023-02-16T04:55:37.189Z,100.00
2023-02-16T05:00:42.629Z,100.00
2023-02-16T05:05:48.540Z,100.00
2023-02-16T05:11:06.972Z,100.00
2023-02-16T05:16:12.882Z,100.00
2023-02-16T05:21:37.338Z,100.00
2023-02-16T05:26:41.865Z,100.00
2023-02-16T05:31:46.212Z,100.00
2023-02-16T05:36:52.310Z,100.00
2023-02-16T05:41:57.028Z,100.00
2023-02-16T05:47:01.691Z,100.00
2023-02-16T05:52:07.606Z,100.00
2023-02-16T05:57:12.161Z,100.00
2023-02-16T06:02:17.484Z,100.00
2023-02-16T06:07:23.248Z,100.00
2023-02-16T06:12:27.651Z,100.00
2023-02-16T06:17:32.164Z,100.00
2023-02-16T06:22:39.653Z,100.00
2023-02-16T06:27:43.955Z,100.00
2023-02-16T06:32:48.221Z,100.00
2023-02-16T06:37:54.124Z,100.00
2023-02-16T06:42:58.723Z,100.00
2023-02-16T06:48:03.331Z,100.00
2023-02-16T06:53:09.477Z,100.00
2023-02-16T06:58:14.488Z,100.00
2023-02-16T07:03:19.283Z,100.00
2023-02-16T07:08:25.046Z,100.00
2023-02-16T07:13:29.207Z,100.00
2023-02-16T07:18:34.533Z,100.00
2023-02-16T07:23:40.292Z,100.00
2023-02-16T07:28:44.810Z,100.00
2023-02-16T07:33:49.266Z,100.00
2023-02-16T07:38:55.103Z,100.00
2023-02-16T07:43:59.630Z,100.00
2023-02-16T07:49:06.315Z,100.00
2023-02-16T07:54:12.224Z,100.00
2023-02-16T07:59:17.607Z,100.00
2023-02-16T08:04:22.141Z,100.00
2023-02-16T08:09:28.089Z,100.00
2023-02-16T08:14:32.486Z,100.00
2023-02-16T08:19:37.177Z,100.00
2023-02-16T08:24:43.523Z,100.00
2023-02-16T08:29:47.957Z,100.00
2023-02-16T08:34:52.507Z,100.00
2023-02-16T08:40:00.927Z,100.00
2023-02-16T08:45:06.612Z,100.00
2023-02-16T08:50:12.247Z,100.00
2023-02-16T08:55:18.427Z,100.00
2023-02-16T09:00:35.494Z,100.00
2023-02-16T09:05:40.594Z,100.00
2023-02-16T09:10:46.442Z,100.00
2023-02-16T09:15:50.734Z,100.00
2023-02-16T09:20:55.308Z,100.00
2023-02-16T09:26:03.343Z,100.00
2023-02-16T09:31:12.508Z,100.00
2023-02-16T09:36:17.369Z,100.00
2023-02-16T09:41:29.237Z,100.00
2023-02-16T09:46:35.446Z,100.00
2023-02-16T09:51:41.930Z,100.00
2023-02-16T09:56:59.850Z,96.68
2023-02-16T10:02:30.904Z,94.53
2023-02-16T10:07:51.892Z,93.30
2023-02-16T10:13:05.417Z,92.07
2023-02-16T10:18:22.060Z,90.46
2023-02-16T10:23:41.835Z,88.55
2023-02-16T10:28:50.275Z,88.61
2023-02-16T10:34:21.365Z,86.20
2023-02-16T10:39:36.860Z,85.08
2023-02-16T10:44:51.123Z,84.02
2023-02-16T10:49:57.095Z,84.47
2023-02-16T10:55:02.480Z,82.80
2023-02-16T11:00:14.622Z,83.38
2023-02-16T11:05:38.084Z,80.59
2023-02-16T11:10:49.009Z,81.31
2023-02-16T11:15:58.030Z,76.05
2023-02-16T11:21:04.228Z,75.90
2023-02-16T11:26:24.767Z,75.51
2023-02-16T11:31:35.144Z,75.98
2023-02-16T11:36:44.059Z,74.54
2023-02-16T11:41:53.251Z,75.10
2023-02-16T11:47:01.729Z,75.37
2023-02-16T11:52:26.409Z,74.18
2023-02-16T11:57:33.625Z,72.83
2023-02-16T12:03:08.940Z,71.47
2023-02-16T12:08:37.876Z,69.97
2023-02-16T12:13:52.656Z,68.78
2023-02-16T12:19:19.133Z,68.06
2023-02-16T12:24:41.120Z,67.81
2023-02-16T12:29:55.603Z,67.73
2023-02-16T12:35:24.397Z,68.31
2023-02-16T12:40:44.130Z,67.99
2023-02-16T12:45:49.676Z,68.27
2023-02-16T12:50:58.231Z,67.57
2023-02-16T12:56:10.680Z,66.94
2023-02-16T13:01:21.769Z,66.38
2023-02-16T13:06:33.931Z,66.42
2023-02-16T13:11:45.244Z,67.13
2023-02-16T13:16:57.011Z,66.81
2023-02-16T13:22:40.358Z,67.34
2023-02-16T13:27:58.499Z,67.94
2023-02-16T13:33:30.595Z,68.37
2023-02-16T13:39:21.928Z,68.29
2023-02-16T13:44:35.488Z,69.68
2023-02-16T13:49:43.580Z,70.99
2023-02-16T13:54:50.906Z,71.74
2023-02-16T14:00:05.717Z,71.49
2023-02-16T14:05:28.773Z,71.45
2023-02-16T14:11:11.991Z,71.45
2023-02-16T14:16:35.133Z,70.66
2023-02-16T14:21:42.917Z,71.32
2023-02-16T14:26:59.487Z,71.99
2023-02-16T14:32:21.428Z,71.99
2023-02-16T14:37:37.843Z,72.22
2023-02-16T14:42:53.883Z,73.61
2023-02-16T14:48:15.185Z,73.58
2023-02-16T14:54:08.657Z,72.28
2023-02-16T14:59:29.767Z,72.20
2023-02-16T15:04:38.429Z,72.43
2023-02-16T15:09:44.191Z,73.56
2023-02-16T15:14:52.532Z,74.74
2023-02-16T15:20:04.166Z,77.08
2023-02-16T15:25:23.874Z,78.00
2023-02-16T15:30:31.849Z,79.30
2023-02-16T15:35:39.526Z,81.55
2023-02-16T15:40:45.574Z,83.29
2023-02-16T15:45:53.881Z,84.97
2023-02-16T15:51:06.980Z,86.49
2023-02-16T15:56:38.758Z,88.37
2023-02-16T16:01:44.540Z,91.16
2023-02-16T16:06:51.377Z,93.09
2023-02-16T16:12:00.955Z,94.05
2023-02-16T16:17:09.000Z,96.11
2023-02-16T16:22:34.309Z,100.00
2023-02-16T16:27:48.427Z,100.00
2023-02-16T16:33:04.401Z,100.00
2023-02-16T16:38:23.600Z,100.00
2023-02-16T16:43:31.428Z,100.00
2023-02-16T16:48:37.720Z,100.00
2023-02-16T16:53:53.876Z,100.00
2023-02-16T16:59:00.260Z,100.00
2023-02-16T17:04:06.433Z,100.00
2023-02-16T17:09:10.886Z,100.00
2023-02-16T17:14:19.594Z,100.00
2023-02-16T17:19:29.045Z,100.00
2023-02-16T17:24:33.634Z,100.00
2023-02-16T17:29:38.162Z,100.00
2023-02-16T17:34:44.638Z,100.00
2023-02-16T17:39:49.388Z,100.00
2023-02-16T17:44:53.759Z,100.00
2023-02-16T17:49:59.957Z,100.00
2023-02-16T17:55:04.840Z,100.00
2023-02-16T18:00:18.469Z,100.00
2023-02-16T18:10:49.718Z,100.00
2023-02-16T18:15:54.969Z,100.00
2023-02-16T18:20:59.639Z,100.00
2023-02-16T18:26:06.481Z,100.00
2023-02-16T18:31:11.896Z,100.00
2023-02-16T18:36:16.586Z,100.00
2023-02-16T18:41:22.353Z,100.00
2023-02-16T18:46:26.697Z,100.00
2023-02-16T18:51:32.137Z,100.00
2023-02-16T18:56:39.120Z,100.00
2023-02-16T19:01:43.681Z,100.00
2023-02-16T19:06:48.361Z,100.00
2023-02-16T19:11:54.051Z,100.00
2023-02-16T19:16:58.817Z,100.00
2023-02-16T19:22:03.243Z,100.00
2023-02-16T19:27:09.097Z,100.00
2023-02-16T19:32:13.703Z,100.00
2023-02-16T19:37:18.093Z,100.00
2023-02-16T19:42:24.043Z,100.00
2023-02-16T19:47:28.610Z,100.00
2023-02-16T19:52:32.809Z,100.00
2023-02-16T19:57:38.324Z,100.00
2023-02-16T20:02:42.882Z,100.00
2023-02-16T20:07:47.081Z,100.00
2023-02-16T20:12:52.991Z,100.00
2023-02-16T20:17:57.336Z,100.00
2023-02-16T20:23:01.755Z,100.00
2023-02-16T20:28:07.640Z,100.00
2023-02-16T20:33:12.082Z,100.00
2023-02-16T20:38:17.036Z,100.00
2023-02-16T20:43:23.052Z,100.00
2023-02-16T20:48:27.745Z,100.00
2023-02-16T20:53:32.611Z,100.00
2023-02-16T20:58:40.229Z,100.00
2023-02-16T21:03:44.965Z,100.00
2023-02-16T21:08:49.274Z,100.00
2023-02-16T21:13:55.726Z,100.00
2023-02-16T21:19:00.585Z,100.00
2023-02-16T21:24:05.428Z,100.00
2023-02-16T21:29:11.398Z,100.00
2023-02-16T21:34:15.941Z,100.00
2023-02-16T21:39:40.394Z,100.00
2023-02-16T21:44:50.013Z,100.00
2023-02-16T21:49:54.591Z,100.00
2023-02-16T21:55:16.666Z,100.00
2023-02-16T22:00:22.687Z,100.00
2023-02-16T22:05:27.030Z,100.00
2023-02-16T22:10:31.853Z,100.00
2023-02-16T22:15:38.217Z,100.00
2023-02-16T22:20:42.648Z,100.00
2023-02-16T22:25:47.447Z,100.00
2023-02-16T22:30:53.086Z,100.00
2023-02-16T22:35:57.452Z,100.00
2023-02-16T22:41:07.011Z,100.00
2023-02-16T22:46:17.598Z,100.00
2023-02-16T22:51:23.132Z,100.00
2023-02-16T22:56:28.298Z,100.00
2023-02-16T23:01:34.664Z,100.00
2023-02-16T23:06:39.184Z,100.00
2023-02-16T23:11:43.705Z,100.00
2023-02-16T23:16:52.194Z,100.00
2023-02-16T23:21:57.742Z,100.00
2023-02-16T23:27:02.311Z,100.00
2023-02-16T23:32:08.105Z,100.00
2023-02-16T23:37:12.705Z,100.00
2023-02-16T23:42:17.127Z,100.00
2023-02-16T23:47:23.065Z,100.00
2023-02-16T23:52:27.487Z,100.00
2023-02-16T23:57:31.932Z,100.00
